Time;durP1;ratioP1;P1;durP2;ratioP2;P2;SDS_P1;SDS_P2;PMS_P1;PMS_P2;Temp;Humidity;BMP_temperature;BMP_pressure;BME280_temperature;BME280_humidity;BME280_pressure;Samples;Min_cycle;Max_cycle;Signal;HPM_P1;HPM_P2
2021/12/22 00:01:57;;;;;;;;;;;;;;;-6.48;70.29;96044.56;5033062;28;1088;-46
2021/12/22 00:04:25;;;;;;;;;;;;;;;-6.68;70.21;96038.97;5033305;28;1060;-46
2021/12/22 00:06:52;;;;;;;;;;;;;;;-6.82;70.47;96038.44;5033469;28;994;-46
2021/12/22 00:09:18;;;;;;;;;;;;;;;-6.80;70.33;96047.06;5033648;28;1058;-46
2021/12/22 00:11:45;;;;;;;;;;;;;;;-6.84;69.67;96046.28;5042432;28;1159;-46
2021/12/22 00:14:11;;;;;;;;;;;;;;;-6.80;71.13;96045.31;5053079;28;1046;-46
2021/12/22 00:16:38;;;;;;;;;;;;;;;-6.54;70.20;96043.88;5053094;28;1033;-46
2021/12/22 00:19:04;;;;;;;;;;;;;;;-6.45;69.08;96045.38;5035251;28;1914;-46
2021/12/22 00:21:30;;;;;;;;;;;;;;;-6.59;70.21;96049.16;5035342;28;1105;-46
2021/12/22 00:23:56;;;;;;;;;;;;;;;-6.55;69.74;96055.16;5053364;28;942;-46
2021/12/22 00:26:22;;;;;;;;;;;;;;;-6.53;69.82;96051.59;5053010;28;1030;-46
2021/12/22 00:28:49;;;;;;;;;;;;;;;-6.54;68.96;96055.13;5052735;28;1085;-46
2021/12/22 00:31:19;;;;;;;;;;;;;;;-6.44;69.02;96050.56;5053019;28;1097;-46
2021/12/22 00:33:50;;;;;;;;;;;;;;;-6.35;69.77;96047.72;5052795;28;1101;-46
2021/12/22 00:36:19;;;;;;;;;;;;;;;-6.49;69.69;96045.47;5053209;28;1057;-45
2021/12/22 00:38:45;;;;;;;;;;;;;;;-6.40;69.57;96048.72;5052816;28;1910;-46
2021/12/22 00:41:12;;;;;;;;;;;;;;;-6.34;69.79;96048.56;5052963;28;1100;-46
2021/12/22 00:43:38;;;;;;;;;;;;;;;-6.42;69.83;96050.53;5052756;28;1039;-45
2021/12/22 00:46:05;;;;;;;;;;;;;;;-6.62;69.78;96051.84;5052798;28;967;-46
2021/12/22 00:48:31;;;;;;;;;;;;;;;-6.79;69.87;96066.97;5052693;28;1033;-45
2021/12/22 00:50:58;;;;;;;;;;;;;;;-6.79;70.19;96061.75;5052984;28;938;-46
2021/12/22 00:53:24;;;;;;;;;;;;;;;-6.69;71.04;96063.28;5052623;28;1042;-46
2021/12/22 00:55:50;;;;;;;;;;;;;;;-6.66;70.05;96063.19;5052889;28;990;-46
2021/12/22 00:58:16;;;;;;;;;;;;;;;-6.63;69.56;96060.53;5052854;28;1022;-45
2021/12/22 01:00:45;;;;;;;;;;;;;;;-6.55;69.32;96069.00;5052641;28;1981;-46
2021/12/22 01:03:12;;;;;;;;;;;;;;;-6.86;69.11;96063.66;5052522;28;1046;-45
2021/12/22 01:05:38;;;;;;;;;;;;;;;-7.00;70.26;96063.97;5052942;28;985;-46
2021/12/22 01:08:04;;;;;;;;;;;;;;;-7.02;70.16;96070.91;5052748;28;982;-46
2021/12/22 01:10:30;;;;;;;;;;;;;;;-7.13;70.03;96071.16;5052638;28;1034;-45
2021/12/22 01:12:57;;;;;;;;;;;;;;;-7.13;70.26;96073.78;5014568;28;1182;-46
2021/12/22 01:15:24;;;;;;;;;;;;;;;-7.12;70.67;96074.63;5016508;28;1013;-46
2021/12/22 01:17:58;;;;;;;;;;;;;;;-7.09;70.61;96074.56;5016427;28;1951;-45
2021/12/22 01:20:49;;;;;;;;;;;;;;;-7.05;71.15;96073.59;5016834;28;1910;-46
2021/12/22 01:23:16;;;;;;;;;;;;;;;-7.12;70.73;96079.81;5016463;28;1017;-46
2021/12/22 01:25:44;;;;;;;;;;;;;;;-7.02;70.81;96067.47;5016476;28;1030;-46
2021/12/22 01:28:10;;;;;;;;;;;;;;;-6.88;71.04;96062.84;5016080;28;1075;-46
2021/12/22 01:30:42;;;;;;;;;;;;;;;-6.84;70.70;96066.22;5016604;28;1067;-45
2021/12/22 01:33:08;;;;;;;;;;;;;;;-6.92;70.22;96061.19;5016171;28;1038;-46
2021/12/22 01:35:35;;;;;;;;;;;;;;;-7.23;70.52;96061.84;5016222;28;1043;-45
2021/12/22 01:38:02;;;;;;;;;;;;;;;-7.44;70.65;96060.53;5015993;28;1231;-45
2021/12/22 01:40:29;;;;;;;;;;;;;;;-7.58;70.84;96067.75;5016066;28;1906;-45
2021/12/22 01:42:56;;;;;;;;;;;;;;;-7.57;71.70;96053.88;5016031;28;1168;-45
2021/12/22 01:50:37;;;;;;;;;;;;;;;-7.63;71.00;96041.84;5016024;28;1081;-45
2021/12/22 01:53:09;;;;;;;;;;;;;;;-7.68;71.40;96036.75;5015940;28;1018;-44
2021/12/22 01:55:37;;;;;;;;;;;;;;;-7.40;71.89;96037.94;5016365;28;1038;-45
2021/12/22 01:58:06;;;;;;;;;;;;;;;-7.18;71.49;96023.63;5015880;28;978;-46
2021/12/22 02:00:34;;;;;;;;;;;;;;;-7.19;70.70;96026.25;5015929;28;1914;-45
2021/12/22 02:03:00;;;;;;;;;;;;;;;-7.22;69.79;96023.72;5015606;28;1048;-46
2021/12/22 02:05:26;;;;;;;;;;;;;;;-7.42;70.21;96029.31;5015649;28;1060;-45
2021/12/22 02:07:57;;;;;;;;;;;;;;;-7.61;70.26;96024.50;5015734;28;970;-45
2021/12/22 02:12:54;;;;;;;;;;;;;;;-7.49;70.67;96019.06;5052384;28;1206;-45
2021/12/22 02:15:20;;;;;;;;;;;;;;;-7.67;71.03;96027.22;5055689;28;1048;-45
2021/12/22 02:17:48;;;;;;;;;;;;;;;-7.44;71.25;96031.94;5054940;28;1227;-46
2021/12/22 02:20:15;;;;;;;;;;;;;;;-7.46;70.70;96028.53;5054993;28;2000;-45
2021/12/22 02:22:43;;;;;;;;;;;;;;;-7.45;71.11;96032.84;5055023;28;1880;-46
2021/12/22 02:25:16;;;;;;;;;;;;;;;-7.53;70.09;96026.94;5053750;28;1078;-46
2021/12/22 02:27:49;;;;;;;;;;;;;;;-7.65;70.74;96034.09;5054948;28;1478;-46
2021/12/22 02:30:17;;;;;;;;;;;;;;;-7.70;70.96;96027.25;5055208;28;970;-46
2021/12/22 02:35:12;;;;;;;;;;;;;;;-7.49;70.91;96028.59;5054699;28;1026;-45
2021/12/22 02:37:44;;;;;;;;;;;;;;;-7.70;70.28;96028.16;5054812;28;1050;-46
2021/12/22 02:40:14;;;;;;;;;;;;;;;-7.77;70.03;96025.69;5054824;28;1918;-46
2021/12/22 02:42:41;;;;;;;;;;;;;;;-7.86;70.18;96029.31;5054713;28;978;-45
2021/12/22 02:45:08;;;;;;;;;;;;;;;-7.74;70.71;96025.63;5054698;28;1041;-46
2021/12/22 02:47:34;;;;;;;;;;;;;;;-7.50;71.35;96026.88;5054553;28;1191;-46
2021/12/22 02:50:00;;;;;;;;;;;;;;;-7.37;70.55;96023.16;5054324;28;1270;-46
2021/12/22 02:52:34;;;;;;;;;;;;;;;-7.36;70.05;96027.47;5054831;28;1044;-46
2021/12/22 02:55:01;;;;;;;;;;;;;;;-7.69;69.67;96026.41;5054570;28;1124;-45
2021/12/22 02:57:36;;;;;;;;;;;;;;;-7.91;69.56;96025.94;5054390;28;1068;-45
2021/12/22 03:00:31;;;;;;;;;;;;;;;-7.91;70.68;96020.75;5054036;28;1922;-45
2021/12/22 03:05:24;;;;;;;;;;;;;;;-7.65;69.79;96023.69;5054428;28;1017;-45
2021/12/22 03:07:50;;;;;;;;;;;;;;;-7.91;70.03;96021.63;5054463;28;1013;-45
2021/12/22 03:10:18;;;;;;;;;;;;;;;-8.03;70.19;96021.84;5053938;28;1097;-45
2021/12/22 03:12:46;;;;;;;;;;;;;;;-8.17;70.85;96022.09;5019294;28;1213;-45
2021/12/22 03:15:12;;;;;;;;;;;;;;;-8.13;71.08;96020.31;5014227;28;1205;-45
2021/12/22 03:17:38;;;;;;;;;;;;;;;-8.11;70.82;96023.72;5014692;28;1021;-45
2021/12/22 03:20:05;;;;;;;;;;;;;;;-8.01;70.51;96032.19;5014008;28;1987;-45
2021/12/22 03:22:31;;;;;;;;;;;;;;;-8.08;69.71;96028.84;5014432;28;1179;-45
2021/12/22 03:24:57;;;;;;;;;;;;;;;-8.06;70.46;96025.34;5013993;28;1075;-46
2021/12/22 03:27:24;;;;;;;;;;;;;;;-8.10;70.50;96031.50;5013973;28;1134;-46
2021/12/22 03:29:51;;;;;;;;;;;;;;;-8.23;71.15;96022.22;5013990;28;1049;-46
2021/12/22 03:32:17;;;;;;;;;;;;;;;-8.23;71.00;96030.00;5014161;28;1444;-45
2021/12/22 03:34:43;;;;;;;;;;;;;;;-8.07;71.98;96030.56;5014207;28;1034;-45
2021/12/22 03:37:10;;;;;;;;;;;;;;;-7.93;71.54;96017.31;5013729;28;1050;-46
2021/12/22 03:39:37;;;;;;;;;;;;;;;-7.94;69.70;96018.22;5013737;28;1914;-45
2021/12/22 03:42:05;;;;;;;;;;;;;;;-8.15;69.75;96024.66;5014157;28;1046;-45
2021/12/22 03:44:31;;;;;;;;;;;;;;;-8.34;70.63;96017.19;5013795;28;1050;-46
2021/12/22 03:46:59;;;;;;;;;;;;;;;-8.52;70.87;96027.91;5014161;28;1125;-46
2021/12/22 03:49:26;;;;;;;;;;;;;;;-8.45;71.51;96011.38;5013835;28;1077;-46
2021/12/22 03:51:52;;;;;;;;;;;;;;;-8.05;71.08;96018.41;5013869;28;981;-45
2021/12/22 03:54:18;;;;;;;;;;;;;;;-7.89;70.92;96018.97;5013569;28;1098;-46
2021/12/22 03:56:44;;;;;;;;;;;;;;;-7.78;70.27;96022.22;5013652;28;1381;-45
2021/12/22 03:59:10;;;;;;;;;;;;;;;-7.86;69.44;96021.53;5013920;28;1915;-45
2021/12/22 04:01:36;;;;;;;;;;;;;;;-7.70;70.91;96025.56;5013939;28;994;-45
2021/12/22 04:04:08;;;;;;;;;;;;;;;-7.69;69.88;96029.00;5013660;28;1874;-46
2021/12/22 04:06:34;;;;;;;;;;;;;;;-8.19;69.19;96025.56;5013670;28;977;-45
2021/12/22 04:09:01;;;;;;;;;;;;;;;-8.30;69.79;96029.22;5013527;28;1066;-45
2021/12/22 04:11:27;;;;;;;;;;;;;;;-8.27;69.88;96038.69;5027095;28;1877;-46
2021/12/22 04:13:53;;;;;;;;;;;;;;;-8.20;69.69;96040.31;5053381;28;1030;-45
2021/12/22 04:16:19;;;;;;;;;;;;;;;-8.37;70.49;96039.75;5053008;28;1367;-45
2021/12/22 04:18:45;;;;;;;;;;;;;;;-8.36;71.43;96037.13;5053388;28;2044;-46
2021/12/22 04:21:11;;;;;;;;;;;;;;;-8.05;70.84;96045.22;5053007;28;970;-45
2021/12/22 04:23:37;;;;;;;;;;;;;;;-7.86;70.79;96044.88;5053045;28;1109;-46
2021/12/22 04:26:03;;;;;;;;;;;;;;;-7.74;71.18;96052.47;5053046;28;987;-45
2021/12/22 04:28:29;;;;;;;;;;;;;;;-7.54;70.96;96053.81;5052990;28;1130;-46
2021/12/22 04:30:55;;;;;;;;;;;;;;;-7.60;70.33;96052.19;5052799;28;1281;-45
2021/12/22 04:33:21;;;;;;;;;;;;;;;-7.90;69.84;96049.28;5053304;28;1028;-46
2021/12/22 04:35:48;;;;;;;;;;;;;;;-8.02;69.80;96057.31;5053335;28;974;-45
2021/12/22 04:38:15;;;;;;;;;;;;;;;-7.94;69.54;96055.41;5052958;28;1023;-45
2021/12/22 04:40:41;;;;;;;;;;;;;;;-8.15;70.29;96058.41;5035337;28;1989;-45
2021/12/22 04:43:07;;;;;;;;;;;;;;;-8.07;70.00;96057.38;5053097;28;1057;-46
2021/12/22 04:45:34;;;;;;;;;;;;;;;-8.25;70.74;96058.56;5052763;28;1975;-45
2021/12/22 04:48:00;;;;;;;;;;;;;;;-8.13;72.41;96054.03;5053629;28;1872;-46
2021/12/22 04:50:27;;;;;;;;;;;;;;;-7.83;71.38;96044.84;5056980;28;1068;-45
2021/12/22 04:53:07;;;;;;;;;;;;;;;-7.68;71.10;96054.94;5056683;28;1033;-46
2021/12/22 04:55:33;;;;;;;;;;;;;;;-7.59;70.72;96055.63;5056930;28;1029;-46
2021/12/22 04:57:59;;;;;;;;;;;;;;;-7.62;71.02;96045.31;5056839;28;1017;-46
2021/12/22 05:00:26;;;;;;;;;;;;;;;-7.52;71.10;96054.63;5056687;28;1930;-45
2021/12/22 05:02:53;;;;;;;;;;;;;;;-7.51;70.55;96045.94;5056811;28;978;-46
2021/12/22 05:05:19;;;;;;;;;;;;;;;-7.61;69.05;96052.22;5038589;28;1101;-45
2021/12/22 05:07:47;;;;;;;;;;;;;;;-7.97;70.56;96045.06;5056740;28;1176;-45
2021/12/22 05:10:15;;;;;;;;;;;;;;;-8.03;71.02;96049.53;5056244;28;1081;-46
2021/12/22 05:12:41;;;;;;;;;;;;;;;-8.01;71.13;96051.22;5022177;28;1162;-45
2021/12/22 05:15:07;;;;;;;;;;;;;;;-7.93;70.89;96044.16;5016487;28;1162;-45
2021/12/22 05:20:09;;;;;;;;;;;;;;;-7.66;71.60;96053.16;5016546;28;1910;-46
2021/12/22 05:22:35;;;;;;;;;;;;;;;-7.63;70.59;96054.84;5016370;28;1027;-46
2021/12/22 05:25:02;;;;;;;;;;;;;;;-7.65;70.47;96054.84;5016597;28;975;-46
2021/12/22 05:27:29;;;;;;;;;;;;;;;-7.56;70.01;96060.78;5016163;28;1083;-46
2021/12/22 05:29:55;;;;;;;;;;;;;;;-7.60;71.03;96057.38;5016525;28;1017;-46
2021/12/22 05:32:25;;;;;;;;;;;;;;;-7.61;70.58;96065.19;5016225;28;1017;-46
2021/12/22 05:34:52;;;;;;;;;;;;;;;-7.58;69.79;96068.59;5016581;28;1008;-45
2021/12/22 05:37:18;;;;;;;;;;;;;;;-7.56;68.92;96068.56;5016315;28;1045;-46
2021/12/22 05:39:44;;;;;;;;;;;;;;;-7.81;70.14;96063.84;5016064;28;1902;-45
2021/12/22 05:42:10;;;;;;;;;;;;;;;-7.99;70.22;96059.81;5016267;28;931;-46
2021/12/22 05:44:36;;;;;;;;;;;;;;;-8.09;70.73;96061.72;5016421;28;1009;-46
2021/12/22 05:47:03;;;;;;;;;;;;;;;-7.94;71.20;96059.75;5015797;28;1101;-45
2021/12/22 05:49:29;;;;;;;;;;;;;;;-7.90;71.03;96066.59;5016318;28;1025;-46
2021/12/22 05:51:55;;;;;;;;;;;;;;;-8.13;70.50;96073.06;5016041;28;1009;-45
2021/12/22 05:54:21;;;;;;;;;;;;;;;-8.21;70.91;96068.88;5016227;28;983;-45
2021/12/22 05:56:47;;;;;;;;;;;;;;;-8.16;70.94;96067.91;5015631;28;1029;-46
2021/12/22 05:59:13;;;;;;;;;;;;;;;-8.10;71.60;96073.00;5015622;28;1911;-45
2021/12/22 06:01:39;;;;;;;;;;;;;;;-7.92;71.12;96092.59;5015697;28;974;-45
2021/12/22 06:04:06;;;;;;;;;;;;;;;-7.92;69.84;96083.94;5015969;28;1009;-44
2021/12/22 06:06:32;;;;;;;;;;;;;;;-8.04;71.09;96085.03;5015782;28;1038;-45
2021/12/22 06:08:58;;;;;;;;;;;;;;;-8.02;70.92;96077.19;5015624;28;1030;-45
2021/12/22 06:11:24;;;;;;;;;;;;;;;-8.00;71.30;96083.25;5028621;28;1167;-45
2021/12/22 06:13:50;;;;;;;;;;;;;;;-7.92;70.55;96071.81;5055516;28;1068;-45
2021/12/22 06:16:16;;;;;;;;;;;;;;;-7.91;70.47;96075.25;5055178;28;1045;-44
2021/12/22 06:18:44;;;;;;;;;;;;;;;-7.86;69.94;96078.63;5055314;28;1042;-46
2021/12/22 06:21:11;;;;;;;;;;;;;;;-7.72;69.33;96084.47;5055109;28;1910;-45
2021/12/22 06:23:38;;;;;;;;;;;;;;;-7.82;68.76;96077.69;5054906;28;1022;-45
2021/12/22 06:26:04;;;;;;;;;;;;;;;-8.17;69.67;96081.78;5055040;28;1005;-46
2021/12/22 06:28:30;;;;;;;;;;;;;;;-8.14;69.57;96084.31;5054756;28;1204;-46
2021/12/22 06:30:56;;;;;;;;;;;;;;;-8.08;69.71;96078.16;5054786;28;1228;-45
2021/12/22 06:33:22;;;;;;;;;;;;;;;-7.85;69.86;96077.78;5054693;28;1038;-45
2021/12/22 06:35:48;;;;;;;;;;;;;;;-7.49;69.69;96083.16;5054806;28;1018;-44
2021/12/22 06:38:15;;;;;;;;;;;;;;;-5.68;64.53;96086.78;5054631;28;1020;-45
2021/12/22 06:40:41;;;;;;;;;;;;;;;-1.30;52.24;96090.03;5054584;28;1979;-45
2021/12/22 06:43:07;;;;;;;;;;;;;;;-0.66;46.95;96081.94;5054805;28;990;-46
2021/12/22 06:45:33;;;;;;;;;;;;;;;1.60;43.11;96085.59;5054606;28;1125;-46
2021/12/22 06:47:59;;;;;;;;;;;;;;;3.46;38.46;96089.81;5054389;28;978;-46
2021/12/22 06:50:25;;;;;;;;;;;;;;;5.22;35.11;96092.53;5054782;28;998;-47
2021/12/22 06:52:51;;;;;;;;;;;;;;;6.77;32.59;96097.38;5054250;28;1058;-47
2021/12/22 06:55:17;;;;;;;;;;;;;;;7.38;30.39;96102.50;5054723;28;1025;-48
2021/12/22 06:57:43;;;;;;;;;;;;;;;7.35;30.88;96107.22;5054258;28;1018;-50
2021/12/22 07:00:10;;;;;;;;;;;;;;;8.53;29.49;96108.53;5054630;28;1997;-47
2021/12/22 07:02:38;;;;;;;;;;;;;;;9.76;27.84;96118.75;5054159;28;1028;-47
2021/12/22 07:05:09;;;;;;;;;;;;;;;10.14;27.73;96119.91;5054174;28;1209;-45
2021/12/22 07:07:35;;;;;;;;;;;;;;;9.90;27.62;96122.91;5054230;28;1025;-48
2021/12/22 07:10:03;;;;;;;;;;;;;;;7.97;30.11;96114.78;5054110;28;1176;-48
2021/12/22 07:12:29;;;;;;;;;;;;;;;5.72;33.35;96114.66;5023071;28;1214;-47
2021/12/22 07:14:55;;;;;;;;;;;;;;;1.79;40.80;96116.22;5014295;28;1008;-47
2021/12/22 07:17:21;;;;;;;;;;;;;;;-1.39;47.27;96110.47;5014386;28;1034;-46
2021/12/22 07:19:47;;;;;;;;;;;;;;;-2.87;52.99;96119.84;5014372;28;1991;-45
2021/12/22 07:22:13;;;;;;;;;;;;;;;-3.70;56.33;96104.41;5014372;28;1872;-46
2021/12/22 07:24:39;;;;;;;;;;;;;;;-4.20;58.39;96103.41;5014082;28;1100;-46
2021/12/22 07:27:05;;;;;;;;;;;;;;;-4.36;59.73;96107.41;5014413;28;1400;-46
2021/12/22 07:29:31;;;;;;;;;;;;;;;-4.48;59.96;96119.06;5014049;28;2085;-46
2021/12/22 07:31:57;;;;;;;;;;;;;;;-4.41;61.25;96119.75;5013306;28;1023;-46
2021/12/22 07:34:46;;;;;;;;;;;;;;;-4.46;60.78;96114.66;5013972;28;1081;-45
2021/12/22 07:37:15;;;;;;;;;;;;;;;-4.56;61.36;96113.22;5014505;28;983;-46
2021/12/22 07:39:41;;;;;;;;;;;;;;;-4.53;61.00;96108.78;5013792;28;1991;-45
2021/12/22 07:42:07;;;;;;;;;;;;;;;-4.32;61.90;96109.03;5014037;28;973;-45
2021/12/22 07:44:33;;;;;;;;;;;;;;;-4.07;61.24;96109.09;5014132;28;1064;-46
2021/12/22 07:46:59;;;;;;;;;;;;;;;-3.84;61.68;96110.97;5014146;28;1006;-45
2021/12/22 07:49:25;;;;;;;;;;;;;;;-3.79;61.25;96114.28;5014079;28;1115;-46
2021/12/22 07:51:51;;;;;;;;;;;;;;;-3.68;62.02;96106.09;5013820;28;1026;-45
2021/12/22 07:54:17;;;;;;;;;;;;;;;-3.73;61.96;96114.06;5013731;28;1037;-45
2021/12/22 07:56:43;;;;;;;;;;;;;;;-3.71;62.46;96124.47;5013709;28;1065;-46
2021/12/22 07:59:09;;;;;;;;;;;;;;;-3.53;62.35;96128.22;5013563;28;1913;-46
2021/12/22 08:01:35;;;;;;;;;;;;;;;-3.67;63.36;96135.69;5014102;28;1030;-45
2021/12/22 08:04:01;;;;;;;;;;;;;;;-3.67;64.31;96138.31;5013739;28;994;-46
2021/12/22 08:06:27;;;;;;;;;;;;;;;-3.70;63.32;96133.16;5013711;28;1241;-45
2021/12/22 08:08:53;;;;;;;;;;;;;;;-3.70;62.95;96144.47;5013613;28;1056;-45
2021/12/22 08:11:19;;;;;;;;;;;;;;;-3.56;63.40;96134.44;5025131;28;1995;-45
2021/12/22 08:13:45;;;;;;;;;;;;;;;-3.48;62.30;96131.53;5053002;28;1022;-45
2021/12/22 08:16:11;;;;;;;;;;;;;;;-3.41;62.55;96140.91;5053423;28;1057;-46
2021/12/22 08:18:37;;;;;;;;;;;;;;;-3.42;63.10;96131.34;5053207;28;986;-45
2021/12/22 08:21:03;;;;;;;;;;;;;;;-3.38;63.33;96127.72;5053187;28;1910;-46
2021/12/22 08:23:29;;;;;;;;;;;;;;;-3.26;62.72;96122.94;5056473;28;1033;-46
2021/12/22 08:25:55;;;;;;;;;;;;;;;-3.17;63.96;96122.63;5057361;28;1053;-46
2021/12/22 08:31:43;;;;;;;;;;;;;;;-2.84;61.62;96114.50;4473084;28;2514;-45
2021/12/22 08:34:10;;;;;;;;;;;;;;;-2.76;61.67;96112.44;5057271;28;1004;-45
2021/12/22 08:39:22;;;;;;;;;;;;;;;-2.72;62.17;96116.66;5057114;28;1975;-45
2021/12/22 08:41:49;;;;;;;;;;;;;;;-2.63;61.44;96116.31;5057256;28;985;-46
2021/12/22 08:44:17;;;;;;;;;;;;;;;-2.51;63.11;96111.53;5056828;28;1892;-46
2021/12/22 08:46:46;;;;;;;;;;;;;;;-2.39;62.55;96108.41;5056845;28;1049;-45
2021/12/22 08:49:13;;;;;;;;;;;;;;;-2.29;61.02;96111.56;5056960;28;1006;-45
2021/12/22 08:51:39;;;;;;;;;;;;;;;-2.26;61.22;96112.28;5057090;28;978;-45
2021/12/22 08:54:05;;;;;;;;;;;;;;;-2.09;60.70;96111.63;5056725;28;991;-45
2021/12/22 08:56:31;;;;;;;;;;;;;;;-2.08;61.68;96109.88;5056823;28;1051;-46
2021/12/22 08:58:58;;;;;;;;;;;;;;;-1.99;60.68;96107.72;5056659;28;1902;-46
2021/12/22 09:01:25;;;;;;;;;;;;;;;-1.89;61.15;96105.59;5056783;28;978;-45
2021/12/22 09:03:51;;;;;;;;;;;;;;;-1.96;61.46;96109.38;5056490;28;1046;-45
2021/12/22 09:06:18;;;;;;;;;;;;;;;-1.90;61.47;96105.63;5056704;28;1078;-44
2021/12/22 09:08:44;;;;;;;;;;;;;;;-1.97;60.97;96107.66;5056697;28;1005;-45
2021/12/22 09:11:10;;;;;;;;;;;;;;;-1.42;59.99;96109.78;5047115;28;1158;-45
2021/12/22 09:13:37;;;;;;;;;;;;;;;0.54;55.33;96104.28;5016898;28;978;-45
2021/12/22 09:16:03;;;;;;;;;;;;;;;1.57;51.88;96104.19;5016529;28;989;-45
2021/12/22 09:18:29;;;;;;;;;;;;;;;2.03;49.67;96101.69;5016630;28;2006;-46
2021/12/22 09:20:55;;;;;;;;;;;;;;;3.04;47.09;96102.88;5016564;28;1993;-46
2021/12/22 09:23:21;;;;;;;;;;;;;;;5.30;42.58;96100.78;5016482;28;1038;-46
2021/12/22 09:25:47;;;;;;;;;;;;;;;8.58;35.56;96097.53;5016446;28;1057;-47
2021/12/22 09:28:14;;;;;;;;;;;;;;;11.48;31.34;96097.16;5016573;28;1182;-47
2021/12/22 09:30:40;;;;;;;;;;;;;;;12.87;28.53;96100.81;5016402;28;1039;-48
2021/12/22 09:33:08;;;;;;;;;;;;;;;13.99;26.47;96105.63;5016532;28;1079;-48
2021/12/22 09:35:34;;;;;;;;;;;;;;;14.38;25.26;96099.78;5014430;28;1895;-47
2021/12/22 09:38:00;;;;;;;;;;;;;;;13.78;26.04;96099.78;5016334;28;1045;-47
2021/12/22 09:40:26;;;;;;;;;;;;;;;13.16;26.67;96103.28;5016061;28;1906;-48
2021/12/22 09:42:52;;;;;;;;;;;;;;;12.35;27.53;96092.50;5016230;28;1034;-48
2021/12/22 09:45:20;;;;;;;;;;;;;;;12.07;27.96;96085.31;5016066;28;1049;-47
2021/12/22 09:48:14;;;;;;;;;;;;;;;13.21;26.03;96095.59;5016429;28;1365;-48
2021/12/22 09:53:16;;;;;;;;;;;;;;;18.20;20.50;96091.09;5015990;28;1050;-47
2021/12/22 09:55:42;;;;;;;;;;;;;;;15.48;22.41;96080.84;5015801;28;1030;-45
2021/12/22 09:58:11;;;;;;;;;;;;;;;9.56;28.98;96075.06;5016117;28;1001;-45
2021/12/22 10:00:37;;;;;;;;;;;;;;;5.82;36.17;96067.97;5015667;28;1989;-45
2021/12/22 10:03:04;;;;;;;;;;;;;;;4.20;40.69;96069.28;5016000;28;996;-45
2021/12/22 10:05:30;;;;;;;;;;;;;;;2.78;41.75;96064.81;5015597;28;1018;-47
2021/12/22 10:08:14;;;;;;;;;;;;;;;1.55;45.46;96056.81;5015870;28;1044;-45
2021/12/22 10:10:46;;;;;;;;;;;;;;;1.23;47.11;96053.28;5016402;28;1154;-45
2021/12/22 10:13:16;;;;;;;;;;;;;;;1.81;46.50;96045.78;5055544;28;1056;-46
2021/12/22 10:15:42;;;;;;;;;;;;;;;2.07;44.68;96042.53;5055161;28;1094;-46
2021/12/22 10:18:08;;;;;;;;;;;;;;;1.84;44.99;96041.19;5055188;28;1092;-45
2021/12/22 10:20:34;;;;;;;;;;;;;;;2.70;43.56;96043.31;5055315;28;1914;-45
2021/12/22 10:23:00;;;;;;;;;;;;;;;6.03;37.61;96035.53;5054940;28;1873;-45
2021/12/22 10:25:29;;;;;;;;;;;;;;;6.12;34.77;96029.56;5055059;28;1022;-45
2021/12/22 10:28:00;;;;;;;;;;;;;;;5.07;37.70;96042.22;5055040;28;986;-46
2021/12/22 10:30:31;;;;;;;;;;;;;;;4.68;39.43;96030.72;5055011;28;1342;-46
2021/12/22 10:33:23;;;;;;;;;;;;;;;5.02;38.01;96031.09;5054862;28;1045;-45
2021/12/22 10:35:53;;;;;;;;;;;;;;;6.28;35.19;96021.31;5051894;28;1944;-45
2021/12/22 10:38:23;;;;;;;;;;;;;;;7.38;33.79;96027.16;5054714;28;1034;-46
2021/12/22 10:40:51;;;;;;;;;;;;;;;6.24;35.04;96022.47;5054926;28;1934;-46
2021/12/22 10:43:21;;;;;;;;;;;;;;;6.36;34.11;96026.06;5054866;28;978;-45
2021/12/22 10:45:51;;;;;;;;;;;;;;;5.57;36.30;96015.78;5053662;28;1074;-45
2021/12/22 10:51:08;;;;;;;;;;;;;;;4.18;39.53;96008.50;5054769;28;1064;-46
2021/12/22 10:53:44;;;;;;;;;;;;;;;4.27;39.35;95999.09;5054312;28;1034;-46
2021/12/22 10:56:20;;;;;;;;;;;;;;;5.09;37.04;95997.06;5054618;28;1054;-46
2021/12/22 10:58:46;;;;;;;;;;;;;;;4.45;38.87;95995.19;5054297;28;1993;-45
2021/12/22 11:01:13;;;;;;;;;;;;;;;4.19;39.09;95989.03;5054611;28;1930;-44
2021/12/22 11:03:47;;;;;;;;;;;;;;;4.54;39.32;95995.56;5054351;28;1060;-45
2021/12/22 11:06:14;;;;;;;;;;;;;;;6.14;35.40;95998.41;5054488;28;1001;-45
2021/12/22 11:08:40;;;;;;;;;;;;;;;5.37;36.46;95995.09;5054306;28;1045;-46
2021/12/22 11:11:15;;;;;;;;;;;;;;;4.80;38.40;95986.69;5046005;28;1186;-46
2021/12/22 11:13:42;;;;;;;;;;;;;;;4.81;37.43;95996.31;5014642;28;978;-46
2021/12/22 11:16:15;;;;;;;;;;;;;;;4.48;38.43;95995.00;5014813;28;967;-45
2021/12/22 11:18:41;;;;;;;;;;;;;;;3.56;39.58;95984.31;5014330;28;1112;-44
2021/12/22 11:21:16;;;;;;;;;;;;;;;3.12;40.71;95973.78;5014923;28;1910;-45
2021/12/22 11:23:43;;;;;;;;;;;;;;;2.96;41.98;95969.53;5014301;28;1061;-46
2021/12/22 11:26:09;;;;;;;;;;;;;;;3.03;43.82;95966.44;5014639;28;1041;-44
2021/12/22 11:28:35;;;;;;;;;;;;;;;2.66;44.27;95960.78;5014410;28;1033;-45
2021/12/22 11:31:03;;;;;;;;;;;;;;;2.64;45.42;95961.81;5014161;28;1329;-46
2021/12/22 11:33:30;;;;;;;;;;;;;;;2.85;43.57;95957.00;5014299;28;985;-46
2021/12/22 11:35:57;;;;;;;;;;;;;;;2.97;42.98;95952.75;5014439;28;945;-46
2021/12/22 11:38:23;;;;;;;;;;;;;;;3.52;42.48;95955.41;5013846;28;1008;-45
2021/12/22 11:40:55;;;;;;;;;;;;;;;3.86;40.31;95955.03;5014289;28;1985;-45
2021/12/22 11:43:21;;;;;;;;;;;;;;;3.66;42.08;95951.88;5014121;28;930;-46
2021/12/22 11:45:48;;;;;;;;;;;;;;;3.32;42.84;95946.13;5013917;28;1042;-44
2021/12/22 11:48:15;;;;;;;;;;;;;;;3.07;43.31;95945.94;5013821;28;1984;-44
2021/12/22 11:50:45;;;;;;;;;;;;;;;2.98;42.52;95942.09;5013933;28;1034;-45
2021/12/22 11:53:11;;;;;;;;;;;;;;;2.78;43.59;95942.47;5013873;28;950;-44
2021/12/22 11:55:39;;;;;;;;;;;;;;;2.47;43.76;95947.84;5013921;28;1011;-45
2021/12/22 11:58:13;;;;;;;;;;;;;;;2.34;45.11;95941.59;5013590;28;1271;-45
2021/12/22 12:00:40;;;;;;;;;;;;;;;2.51;46.51;95937.94;5014076;28;1914;-44
2021/12/22 12:03:24;;;;;;;;;;;;;;;2.38;45.02;95936.97;5013619;28;1057;-45
2021/12/22 12:06:06;;;;;;;;;;;;;;;2.46;44.57;95926.81;5013928;28;1032;-45
2021/12/22 12:08:41;;;;;;;;;;;;;;;2.56;44.75;95922.66;5013673;28;1001;-45
2021/12/22 12:11:11;;;;;;;;;;;;;;;2.71;44.13;95923.50;5021659;28;1796;-45
2021/12/22 12:13:48;;;;;;;;;;;;;;;2.80;44.19;95920.31;5053115;28;1034;-45
2021/12/22 12:21:50;;;;;;;;;;;;;;;2.81;43.91;95919.38;5053337;28;969;-44
2021/12/22 12:24:35;;;;;;;;;;;;;;;2.56;42.73;95914.72;5053205;28;1078;-44
2021/12/22 12:27:20;;;;;;;;;;;;;;;2.28;43.73;95918.22;5053288;28;1042;-45
2021/12/22 12:29:56;;;;;;;;;;;;;;;2.00;43.80;95922.47;5052848;28;1349;-45
2021/12/22 12:32:40;;;;;;;;;;;;;;;1.86;44.32;95917.13;5052971;28;1981;-44
2021/12/22 12:35:22;;;;;;;;;;;;;;;1.60;44.08;95911.59;5052922;28;1037;-44
2021/12/22 12:37:57;;;;;;;;;;;;;;;1.53;45.34;95905.81;5052994;28;982;-45
2021/12/22 12:40:24;;;;;;;;;;;;;;;1.68;44.32;95904.09;5053057;28;1914;-45
2021/12/22 12:43:00;;;;;;;;;;;;;;;1.90;45.70;95906.34;5053013;28;966;-44
2021/12/22 12:45:46;;;;;;;;;;;;;;;1.81;46.25;95903.41;5053147;28;970;-45
2021/12/22 12:48:30;;;;;;;;;;;;;;;1.84;45.55;95896.16;5052688;28;1878;-45
2021/12/22 12:51:12;;;;;;;;;;;;;;;2.00;46.34;95903.16;5052610;28;1042;-44
2021/12/22 12:54:01;;;;;;;;;;;;;;;2.00;46.42;95897.91;5052953;28;1137;-44
2021/12/22 12:56:34;;;;;;;;;;;;;;;1.87;46.22;95895.97;5024493;28;1243;-45
2021/12/22 12:59:02;;;;;;;;;;;;;;;2.02;46.95;95899.50;5052631;28;1109;-44
2021/12/22 13:01:46;;;;;;;;;;;;;;;2.09;44.53;95892.06;5052830;28;1034;-45
2021/12/22 13:04:19;;;;;;;;;;;;;;;2.22;42.66;95893.03;5052819;28;1009;-45
2021/12/22 13:06:45;;;;;;;;;;;;;;;2.04;43.33;95889.69;5052877;28;1061;-45
2021/12/22 13:09:25;;;;;;;;;;;;;;;1.85;44.41;95895.19;5053769;28;974;-45
2021/12/22 13:11:57;;;;;;;;;;;;;;;1.89;44.61;95886.16;5036178;28;1218;-44
2021/12/22 13:17:15;;;;;;;;;;;;;;;2.10;43.67;95897.22;5016723;28;1089;-45
2021/12/22 13:19:47;;;;;;;;;;;;;;;1.93;42.75;95900.03;5016456;28;1981;-44
2021/12/22 13:22:17;;;;;;;;;;;;;;;1.75;42.91;95900.16;5016651;28;1044;-44
2021/12/22 13:24:43;;;;;;;;;;;;;;;1.71;44.07;95898.66;5016363;28;1226;-45
2021/12/22 13:27:09;;;;;;;;;;;;;;;1.60;45.00;95910.75;5016494;28;1896;-45
2021/12/22 13:29:36;;;;;;;;;;;;;;;1.73;44.50;95902.03;5016511;28;1041;-44
2021/12/22 13:32:08;;;;;;;;;;;;;;;1.68;43.11;95903.25;5016302;28;1099;-45
2021/12/22 13:34:44;;;;;;;;;;;;;;;1.51;42.75;95901.56;5016569;28;1066;-45
2021/12/22 13:37:10;;;;;;;;;;;;;;;1.44;43.77;95905.50;5016269;28;1014;-44
2021/12/22 13:39:44;;;;;;;;;;;;;;;1.40;45.62;95906.59;5016301;28;1906;-44
2021/12/22 13:42:10;;;;;;;;;;;;;;;1.52;43.86;95911.19;5016452;28;977;-45
2021/12/22 13:44:37;;;;;;;;;;;;;;;1.53;43.48;95904.97;5016236;28;946;-45